createdAt,value
2018-08-24T05:31:59.435Z,18.20
2018-08-24T05:34:27.631Z,18.20
2018-08-24T05:36:55.843Z,18.20
2018-08-24T05:39:24.049Z,18.30
2018-08-24T05:41:51.528Z,18.40
2018-08-24T05:44:19.019Z,18.40
2018-08-24T05:46:47.220Z,18.50
2018-08-24T05:49:16.422Z,18.40
2018-08-24T05:51:44.647Z,18.40
2018-08-24T05:54:12.868Z,18.40
2018-08-24T05:56:41.070Z,18.40
2018-08-24T05:59:09.501Z,18.40
2018-08-24T06:01:36.999Z,18.40
2018-08-24T06:04:04.593Z,18.50
2018-08-24T06:06:32.802Z,18.60
2018-08-24T06:09:05.859Z,18.60
2018-08-24T06:11:33.366Z,18.60
2018-08-24T06:14:01.600Z,18.50
2018-08-24T06:16:29.858Z,18.50
2018-08-24T06:18:58.087Z,18.50
2018-08-24T06:21:26.298Z,18.40
2018-08-24T06:23:54.482Z,18.50
2018-08-24T06:26:22.736Z,18.60
2018-08-24T06:28:50.248Z,18.70
2018-08-24T06:31:18.452Z,18.70
2018-08-24T06:33:46.673Z,18.50
2018-08-24T06:36:14.159Z,18.60
2018-08-24T06:38:41.640Z,18.70
2018-08-24T06:41:10.428Z,18.80
2018-08-24T06:43:38.691Z,18.90
2018-08-24T06:46:06.310Z,18.80
2018-08-24T06:48:34.528Z,18.80
2018-08-24T06:51:03.100Z,18.80
2018-08-24T06:53:31.367Z,18.70
2018-08-24T06:55:59.503Z,18.40
2018-08-24T06:58:27.012Z,18.30
2018-08-24T07:00:55.426Z,18.30
2018-08-24T07:03:22.922Z,18.30
2018-08-24T07:05:50.479Z,18.30
2018-08-24T07:08:17.948Z,18.30
2018-08-24T07:10:45.452Z,18.40
2018-08-24T07:13:13.646Z,18.40
2018-08-24T07:15:41.842Z,18.40
2018-08-24T07:18:10.092Z,18.40
2018-08-24T07:20:37.595Z,18.40
2018-08-24T07:23:05.114Z,18.40
2018-08-24T07:25:32.609Z,18.40
2018-08-24T07:28:00.151Z,18.40
2018-08-24T07:30:27.823Z,18.30
2018-08-24T07:32:55.278Z,18.30
2018-08-24T07:35:22.825Z,18.30
2018-08-24T07:37:50.382Z,18.40
2018-08-24T07:40:17.950Z,18.50
2018-08-24T07:42:45.459Z,18.50
2018-08-24T07:45:13.064Z,18.60
2018-08-24T07:47:40.549Z,18.70
2018-08-24T07:50:08.063Z,18.90
2018-08-24T07:52:35.578Z,18.80
2018-08-24T07:55:03.124Z,18.80
2018-08-24T07:57:30.604Z,18.70
2018-08-24T07:59:58.810Z,18.60
2018-08-24T08:02:33.230Z,18.50
2018-08-24T08:05:01.464Z,18.40
2018-08-24T08:07:29.736Z,18.30
2018-08-24T08:09:57.215Z,18.30
2018-08-24T08:12:25.431Z,18.40
2018-08-24T08:14:58.314Z,18.50
2018-08-24T08:17:25.829Z,18.50
2018-08-24T08:19:54.014Z,18.70
2018-08-24T08:22:21.535Z,18.60
2018-08-24T08:24:49.156Z,18.70
2018-08-24T08:27:17.559Z,18.70
2018-08-24T08:29:50.558Z,18.60
2018-08-24T08:32:18.062Z,18.70
2018-08-24T08:34:51.258Z,18.70
2018-08-24T08:37:20.030Z,18.70
2018-08-24T08:39:49.101Z,18.60
2018-08-24T08:42:17.658Z,18.60
2018-08-24T08:44:45.261Z,18.50
2018-08-24T08:47:14.031Z,18.30
2018-08-24T08:49:42.260Z,18.20
2018-08-24T08:52:12.289Z,17.80
2018-08-24T08:54:39.855Z,17.50
2018-08-24T08:57:07.398Z,17.00
2018-08-24T08:59:34.930Z,16.70
2018-08-24T09:02:02.543Z,16.50
2018-08-24T09:04:30.739Z,16.40
2018-08-24T09:06:58.220Z,16.50
2018-08-24T09:09:26.457Z,16.70
2018-08-24T09:11:53.982Z,16.80
2018-08-24T09:14:21.531Z,16.90
2018-08-24T09:16:49.727Z,16.90
2018-08-24T09:19:22.714Z,16.90
2018-08-24T09:21:55.615Z,17.00
2018-08-24T09:24:30.307Z,17.00
2018-08-24T09:27:03.349Z,17.00
2018-08-24T09:29:30.846Z,17.00
2018-08-24T09:32:00.149Z,16.90
2018-08-24T09:34:27.657Z,16.90
2018-08-24T09:36:55.179Z,16.90
2018-08-24T09:39:26.462Z,16.80
2018-08-24T09:41:56.775Z,16.80
2018-08-24T09:44:24.277Z,16.70
2018-08-24T09:46:58.376Z,16.70
2018-08-24T09:49:29.183Z,16.70
2018-08-24T09:51:57.360Z,16.80
2018-08-24T09:54:24.917Z,16.80
2018-08-24T09:56:52.466Z,16.70
2018-08-24T09:59:20.001Z,16.80
2018-08-24T10:01:53.729Z,16.70
2018-08-24T10:05:26.098Z,16.90
2018-08-24T10:07:58.991Z,16.90
2018-08-24T10:10:26.480Z,17.10
2018-08-24T10:12:53.999Z,17.10
2018-08-24T10:15:21.511Z,17.10
2018-08-24T10:17:49.034Z,17.10
2018-08-24T10:20:16.536Z,17.20
2018-08-24T10:22:44.031Z,17.30
2018-08-24T10:25:11.561Z,17.40
2018-08-24T10:27:39.798Z,17.60
2018-08-24T10:30:07.367Z,17.80
2018-08-24T10:32:35.586Z,17.90
2018-08-24T10:35:03.795Z,18.10
2018-08-24T10:37:32.015Z,17.90
2018-08-24T10:40:00.223Z,18.00
2018-08-24T10:42:28.428Z,18.40
2018-08-24T10:44:56.843Z,18.90
2018-08-24T10:47:24.347Z,19.40
2018-08-24T10:49:52.852Z,19.10
2018-08-24T10:52:21.066Z,19.20
2018-08-24T10:54:48.577Z,19.20
2018-08-24T10:57:16.060Z,19.10
2018-08-24T10:59:43.632Z,19.00
2018-08-24T11:02:12.144Z,19.10
2018-08-24T11:04:40.263Z,19.30
2018-08-24T11:07:07.817Z,19.70
2018-08-24T11:09:36.210Z,19.90
2018-08-24T11:12:03.703Z,20.00
2018-08-24T11:14:31.206Z,20.30
2018-08-24T11:16:59.563Z,20.60
2018-08-24T11:19:27.071Z,20.90
2018-08-24T11:21:55.263Z,21.20
2018-08-24T11:24:22.767Z,21.50
2018-08-24T11:26:50.395Z,21.90
2018-08-24T11:29:19.506Z,22.50
2018-08-24T11:31:49.481Z,22.80
2018-08-24T11:34:19.188Z,22.90
2018-08-24T11:36:47.405Z,22.80
2018-08-24T11:39:16.823Z,22.40
2018-08-24T11:41:46.226Z,22.00
2018-08-24T11:44:16.410Z,21.90
2018-08-24T11:46:46.386Z,22.10
2018-08-24T11:49:18.788Z,22.50
2018-08-24T11:51:49.166Z,22.80
2018-08-24T11:54:20.060Z,22.70
2018-08-24T11:56:50.383Z,22.00
2018-08-24T11:59:21.700Z,21.60
2018-08-24T12:01:50.937Z,21.40
2018-08-24T12:04:28.804Z,21.50
2018-08-24T12:06:58.794Z,21.40
2018-08-24T12:09:28.978Z,21.10
2018-08-24T12:12:00.283Z,21.10
2018-08-24T12:14:40.350Z,21.10
2018-08-24T12:17:13.679Z,21.40
2018-08-24T12:19:44.330Z,21.40
2018-08-24T12:22:23.505Z,21.40
2018-08-24T12:24:54.656Z,21.80
2018-08-24T12:27:39.178Z,22.80
2018-08-24T12:30:07.579Z,23.80
2018-08-24T12:32:37.488Z,24.20
2018-08-24T12:35:05.853Z,24.90
2018-08-24T12:37:39.528Z,25.70
2018-08-24T12:40:07.323Z,26.40
2018-08-24T12:42:46.158Z,27.20
2018-08-24T12:45:13.819Z,27.90
2018-08-24T12:47:41.398Z,29.10
2018-08-24T12:50:09.371Z,29.20
2018-08-24T12:52:37.703Z,27.50
2018-08-24T12:55:06.268Z,25.90
2018-08-24T12:57:34.449Z,25.10
2018-08-24T13:00:02.126Z,24.50
2018-08-24T13:02:29.598Z,23.80
2018-08-24T13:04:57.374Z,23.30
2018-08-24T13:07:25.082Z,23.10
2018-08-24T13:09:53.352Z,23.00
2018-08-24T13:12:21.560Z,22.60
2018-08-24T13:14:49.860Z,22.50
2018-08-24T13:17:18.563Z,22.40
2018-08-24T13:19:46.784Z,22.20
2018-08-24T13:22:15.868Z,22.40
2018-08-24T13:24:44.112Z,22.20
2018-08-24T13:27:12.328Z,22.60
2018-08-24T13:29:40.547Z,22.70
2018-08-24T13:32:08.886Z,22.80
2018-08-24T13:34:37.099Z,22.90
2018-08-24T13:37:05.975Z,23.20
2018-08-24T13:39:34.184Z,23.80
2018-08-24T13:42:03.248Z,23.30
2018-08-24T13:44:32.540Z,22.70
2018-08-24T13:47:01.031Z,22.50
2018-08-24T13:49:29.395Z,22.50
2018-08-24T13:51:57.984Z,22.50
2018-08-24T13:54:26.813Z,22.70
2018-08-24T13:56:56.002Z,22.50
2018-08-24T13:59:24.427Z,22.70
2018-08-24T14:01:52.836Z,22.60
2018-08-24T14:04:22.701Z,22.40
2018-08-24T14:06:51.441Z,22.30
2018-08-24T14:09:19.956Z,22.30
2018-08-24T14:11:48.205Z,22.40
2018-08-24T14:14:17.693Z,22.50
2018-08-24T14:16:45.178Z,22.60
2018-08-24T14:19:12.685Z,23.30
2018-08-24T14:21:40.283Z,23.90
2018-08-24T14:24:07.793Z,24.20
2018-08-24T14:29:13.376Z,23.70
2018-08-24T14:31:41.651Z,23.70
2018-08-24T14:34:09.852Z,24.10
2018-08-24T14:36:38.056Z,24.50
2018-08-24T14:39:08.047Z,24.70
2018-08-24T14:41:37.174Z,24.70
2018-08-24T14:44:05.659Z,24.30
2018-08-24T14:46:33.856Z,24.20
2018-08-24T14:49:02.056Z,23.60
2018-08-24T14:51:30.309Z,23.50
2018-08-24T14:53:58.923Z,23.90
2018-08-24T14:56:27.123Z,24.20
2018-08-24T14:58:55.339Z,24.00
2018-08-24T15:01:23.529Z,23.60
2018-08-24T15:03:51.731Z,23.50
2018-08-24T15:06:20.012Z,23.20
2018-08-24T15:08:48.241Z,23.00
2018-08-24T15:11:16.452Z,22.90
2018-08-24T15:13:46.834Z,22.50
2018-08-24T15:16:15.039Z,22.50
2018-08-24T15:18:46.396Z,22.40
2018-08-24T15:21:14.609Z,22.40
2018-08-24T15:23:42.853Z,22.50
2018-08-24T15:26:10.387Z,22.60
2018-08-24T15:28:38.809Z,22.20
2018-08-24T15:31:06.318Z,22.00
2018-08-24T15:33:34.875Z,22.00
2018-08-24T15:36:03.121Z,22.00
2018-08-24T15:38:31.323Z,22.00
2018-08-24T15:40:59.551Z,22.00
2018-08-24T15:43:27.936Z,22.00
2018-08-24T15:45:56.130Z,22.10
2018-08-24T15:48:25.703Z,22.20
2018-08-24T15:50:54.005Z,22.20
2018-08-24T15:53:22.239Z,22.00
2018-08-24T15:55:50.479Z,21.70
2018-08-24T15:58:18.700Z,21.60
2018-08-24T16:00:47.815Z,21.50
2018-08-24T16:03:16.099Z,21.50
2018-08-24T16:05:44.715Z,21.50
2018-08-24T16:08:13.939Z,21.40
2018-08-24T16:10:42.128Z,21.30
2018-08-24T16:13:10.337Z,21.10
2018-08-24T16:15:39.678Z,20.90
2018-08-24T16:18:13.398Z,20.80
2018-08-24T16:20:46.877Z,20.80
2018-08-24T16:23:15.112Z,20.80
2018-08-24T16:25:43.428Z,20.70
2018-08-24T16:28:11.651Z,20.70
2018-08-24T16:30:40.380Z,20.70
2018-08-24T16:35:43.131Z,20.60
2018-08-24T16:38:11.571Z,20.50
2018-08-24T16:40:50.205Z,20.40
2018-08-24T16:43:18.409Z,20.40
2018-08-24T16:45:46.611Z,20.30
2018-08-24T16:48:14.989Z,20.30
2018-08-24T16:50:43.221Z,20.30
2018-08-24T16:53:11.436Z,20.40
2018-08-24T16:55:39.977Z,20.40
2018-08-24T16:58:09.128Z,20.30
2018-08-24T17:00:39.961Z,20.30
2018-08-24T17:03:08.314Z,20.30
2018-08-24T17:05:36.580Z,20.30
2018-08-24T17:08:05.447Z,20.30
2018-08-24T17:10:33.874Z,20.20
2018-08-24T17:13:02.411Z,20.10
2018-08-24T17:15:30.683Z,20.10
2018-08-24T17:17:59.104Z,20.10
2018-08-24T17:20:27.284Z,20.00
2018-08-24T17:22:55.538Z,20.00
2018-08-24T17:25:23.743Z,19.90
2018-08-24T17:27:51.971Z,19.80
2018-08-24T17:30:20.210Z,19.80
2018-08-24T17:32:48.399Z,19.80
2018-08-24T17:35:16.627Z,19.70
2018-08-24T17:37:44.839Z,19.70
2018-08-24T17:40:13.141Z,19.60
2018-08-24T17:42:41.341Z,19.50
2018-08-24T17:45:10.362Z,19.40
2018-08-24T17:47:38.676Z,19.50
2018-08-24T17:50:06.966Z,19.40
2018-08-24T17:52:35.223Z,19.40
2018-08-24T17:55:05.049Z,19.30
2018-08-24T17:57:33.393Z,19.20
2018-08-24T18:00:02.523Z,19.30
2018-08-24T18:02:33.397Z,19.10
2018-08-24T18:05:02.120Z,19.00
2018-08-24T18:07:30.335Z,18.90
2018-08-24T18:09:58.560Z,19.00
2018-08-24T18:12:26.767Z,19.00
2018-08-24T18:14:55.055Z,19.00
2018-08-24T18:17:23.167Z,19.10
2018-08-24T18:19:51.433Z,19.10
2018-08-24T18:22:19.642Z,19.10
2018-08-24T18:24:48.253Z,19.00
2018-08-24T18:27:16.472Z,18.90
2018-08-24T18:29:44.690Z,18.90
2018-08-24T18:32:12.911Z,18.90
2018-08-24T18:34:41.207Z,18.80
2018-08-24T18:37:09.397Z,18.90
2018-08-24T18:39:37.764Z,18.80
2018-08-24T18:42:06.574Z,18.70
2018-08-24T18:44:34.789Z,18.60
2018-08-24T18:47:04.067Z,18.60
2018-08-24T18:49:32.497Z,18.50
2018-08-24T18:52:00.790Z,18.50
2018-08-24T18:54:29.891Z,18.50
2018-08-24T18:56:58.113Z,18.50
2018-08-24T18:59:26.741Z,18.50
2018-08-24T19:01:54.971Z,18.30
2018-08-24T19:04:23.275Z,18.40
2018-08-24T19:06:51.519Z,18.40
2018-08-24T19:09:21.731Z,18.20
2018-08-24T19:11:55.363Z,18.20
2018-08-24T19:14:23.583Z,18.30
2018-08-24T19:16:51.909Z,18.20
2018-08-24T19:19:25.457Z,18.20
2018-08-24T19:21:57.959Z,18.20
2018-08-24T19:24:26.331Z,18.10
2018-08-24T19:26:54.495Z,18.20
2018-08-24T19:29:28.113Z,18.10
2018-08-24T19:31:56.419Z,18.10
2018-08-24T19:34:25.774Z,17.90
2018-08-24T19:36:54.920Z,17.90
2018-08-24T19:39:23.139Z,18.00
2018-08-24T19:41:57.285Z,18.00
2018-08-24T19:44:25.527Z,17.90
2018-08-24T19:46:53.780Z,17.90
2018-08-24T19:49:22.912Z,17.80
2018-08-24T19:51:51.186Z,17.90
2018-08-24T19:54:19.425Z,17.90
2018-08-24T19:56:50.674Z,17.70
2018-08-24T19:59:18.916Z,17.70
2018-08-24T20:01:47.151Z,17.70
2018-08-24T20:04:15.659Z,17.70
2018-08-24T20:06:49.127Z,17.70
2018-08-24T20:09:22.740Z,17.60
2018-08-24T20:11:52.322Z,17.70
2018-08-24T20:14:26.017Z,17.70
2018-08-24T20:17:03.687Z,17.70
2018-08-24T20:19:33.916Z,17.60
2018-08-24T20:22:02.556Z,17.50
2018-08-24T20:24:31.862Z,17.50
2018-08-24T20:26:59.897Z,17.50
2018-08-24T20:29:28.091Z,17.60
2018-08-24T20:31:56.402Z,17.50
2018-08-24T20:34:24.619Z,17.60
2018-08-24T20:36:55.829Z,17.50
2018-08-24T20:39:24.037Z,17.50
2018-08-24T20:41:52.274Z,17.50
2018-08-24T20:44:20.522Z,17.40
2018-08-24T20:46:48.752Z,17.40
2018-08-24T20:49:18.001Z,17.40
2018-08-24T20:51:45.563Z,17.30
2018-08-24T20:54:15.023Z,17.20
2018-08-24T20:56:44.260Z,17.20
2018-08-24T20:59:12.474Z,17.20
2018-08-24T21:01:41.084Z,17.10
2018-08-24T21:04:09.563Z,17.20
2018-08-24T21:06:37.725Z,17.10
2018-08-24T21:09:10.526Z,17.10
2018-08-24T21:11:38.716Z,17.10
2018-08-24T21:14:07.056Z,17.10
2018-08-24T21:16:35.978Z,17.00
2018-08-24T21:19:04.413Z,17.00
2018-08-24T21:21:33.979Z,17.00
2018-08-24T21:24:02.450Z,17.00
2018-08-24T21:26:30.656Z,16.90
2018-08-24T21:28:59.256Z,16.90
2018-08-24T21:31:29.086Z,16.80
2018-08-24T21:33:57.500Z,16.80
2018-08-24T21:36:31.300Z,16.70
2018-08-24T21:38:59.607Z,16.70
2018-08-24T21:41:27.804Z,16.70
2018-08-24T21:43:56.270Z,16.70
2018-08-24T21:46:26.783Z,16.70
2018-08-24T21:48:56.004Z,16.60
2018-08-24T21:51:26.967Z,16.50
2018-08-24T21:53:56.225Z,16.60
2018-08-24T21:56:24.507Z,16.50
2018-08-24T21:58:52.714Z,16.40
2018-08-24T22:01:20.935Z,16.40
2018-08-24T22:03:49.131Z,16.40
2018-08-24T22:06:16.647Z,16.60
2018-08-24T22:08:45.031Z,16.60
2018-08-24T22:11:12.587Z,16.60
2018-08-24T22:13:40.982Z,16.50
2018-08-24T22:16:08.499Z,16.40
2018-08-24T22:18:36.133Z,16.50
2018-08-24T22:21:03.623Z,16.50
2018-08-24T22:23:31.122Z,16.40
2018-08-24T22:25:58.613Z,16.30
2018-08-24T22:28:26.109Z,16.20
2018-08-24T22:30:53.618Z,16.30
2018-08-24T22:33:21.114Z,16.20
2018-08-24T22:35:48.662Z,16.20
2018-08-24T22:38:16.386Z,16.10
2018-08-24T22:40:43.926Z,16.20
2018-08-24T22:43:16.842Z,16.30
2018-08-24T22:45:44.327Z,16.20
2018-08-24T22:48:11.829Z,16.30
2018-08-24T22:50:39.538Z,16.20
2018-08-24T22:53:07.043Z,16.20
2018-08-24T22:55:34.574Z,16.30
2018-08-24T22:58:02.215Z,16.30
2018-08-24T23:00:29.810Z,16.20
2018-08-24T23:02:57.345Z,16.10
2018-08-24T23:05:24.843Z,16.20
2018-08-24T23:07:53.053Z,16.30
2018-08-24T23:10:21.239Z,16.30
2018-08-24T23:12:49.473Z,16.20
2018-08-24T23:15:17.631Z,16.30
2018-08-24T23:17:45.836Z,16.20
2018-08-24T23:20:14.033Z,16.10
2018-08-24T23:25:25.020Z,16.00
2018-08-24T23:27:53.233Z,16.10
2018-08-24T23:30:22.387Z,16.00
2018-08-24T23:32:50.580Z,16.10
2018-08-24T23:35:18.775Z,16.20
2018-08-24T23:37:46.968Z,16.00
2018-08-24T23:40:15.163Z,16.10
2018-08-24T23:42:43.382Z,16.00
2018-08-24T23:45:11.585Z,16.10
2018-08-24T23:47:39.760Z,16.00
2018-08-24T23:50:08.153Z,16.00
2018-08-24T23:52:35.672Z,15.90
2018-08-24T23:55:03.166Z,15.80
2018-08-24T23:57:30.655Z,15.80
2018-08-24T23:59:58.161Z,15.80
